sensor_id;sensor_type;location;lat;lon;timestamp;temperature;humidity
66312;HTU21D;53114;51.138;6.008;2023-02-28T00:00:36;1.09;118.99
66312;HTU21D;53114;51.138;6.008;2023-02-28T00:03:02;1.07;118.99
66312;HTU21D;53114;51.138;6.008;2023-02-28T00:05:28;1.05;118.99
66312;HTU21D;53114;51.138;6.008;2023-02-28T00:07:55;1.04;118.99
66312;HTU21D;53114;51.138;6.008;2023-02-28T00:10:24;1.03;118.99
66312;HTU21D;53114;51.138;6.008;2023-02-28T00:12:52;1.03;118.99
66312;HTU21D;53114;51.138;6.008;2023-02-28T00:15:18;1.02;118.99
66312;HTU21D;53114;51.138;6.008;2023-02-28T00:17:44;0.99;118.99
66312;HTU21D;53114;51.138;6.008;2023-02-28T00:20:12;0.99;118.99
66312;HTU21D;53114;51.138;6.008;2023-02-28T00:22:42;0.97;118.99
66312;HTU21D;53114;51.138;6.008;2023-02-28T00:25:09;0.94;118.99
66312;HTU21D;53114;51.138;6.008;2023-02-28T00:27:37;0.92;118.99
66312;HTU21D;53114;51.138;6.008;2023-02-28T00:30:07;0.86;118.99
66312;HTU21D;53114;51.138;6.008;2023-02-28T00:32:34;0.81;118.99
66312;HTU21D;53114;51.138;6.008;2023-02-28T00:35:03;0.81;118.99
66312;HTU21D;53114;51.138;6.008;2023-02-28T00:37:30;0.80;118.99
66312;HTU21D;53114;51.138;6.008;2023-02-28T00:39:56;0.77;118.99
66312;HTU21D;53114;51.138;6.008;2023-02-28T00:42:22;0.76;118.99
66312;HTU21D;53114;51.138;6.008;2023-02-28T00:44:48;0.77;118.99
66312;HTU21D;53114;51.138;6.008;2023-02-28T00:47:14;0.76;118.99
66312;HTU21D;53114;51.138;6.008;2023-02-28T00:49:40;0.76;118.99
66312;HTU21D;53114;51.138;6.008;2023-02-28T00:52:09;0.72;118.99
66312;HTU21D;53114;51.138;6.008;2023-02-28T00:54:35;0.72;118.99
66312;HTU21D;53114;51.138;6.008;2023-02-28T00:57:01;0.67;118.99
66312;HTU21D;53114;51.138;6.008;2023-02-28T00:59:27;0.66;118.99
66312;HTU21D;53114;51.138;6.008;2023-02-28T01:01:53;0.66;118.99
66312;HTU21D;53114;51.138;6.008;2023-02-28T01:04:19;0.67;118.99
66312;HTU21D;53114;51.138;6.008;2023-02-28T01:06:45;0.66;118.99
66312;HTU21D;53114;51.138;6.008;2023-02-28T01:09:11;0.66;118.99
66312;HTU21D;53114;51.138;6.008;2023-02-28T01:11:37;0.67;118.99
66312;HTU21D;53114;51.138;6.008;2023-02-28T01:14:04;0.67;118.99
66312;HTU21D;53114;51.138;6.008;2023-02-28T01:16:30;0.67;118.99
66312;HTU21D;53114;51.138;6.008;2023-02-28T01:18:57;0.64;118.99
66312;HTU21D;53114;51.138;6.008;2023-02-28T01:21:23;0.60;118.99
66312;HTU21D;53114;51.138;6.008;2023-02-28T01:23:50;0.59;118.99
66312;HTU21D;53114;51.138;6.008;2023-02-28T01:26:19;0.60;118.99
66312;HTU21D;53114;51.138;6.008;2023-02-28T01:28:46;0.62;118.99
66312;HTU21D;53114;51.138;6.008;2023-02-28T01:31:12;0.61;118.99
66312;HTU21D;53114;51.138;6.008;2023-02-28T01:33:39;0.59;118.99
66312;HTU21D;53114;51.138;6.008;2023-02-28T01:36:11;0.57;118.99
66312;HTU21D;53114;51.138;6.008;2023-02-28T01:38:38;0.54;118.99
66312;HTU21D;53114;51.138;6.008;2023-02-28T01:41:05;0.52;118.99
66312;HTU21D;53114;51.138;6.008;2023-02-28T01:46:18;0.37;118.99
66312;HTU21D;53114;51.138;6.008;2023-02-28T01:49:11;0.32;118.99
66312;HTU21D;53114;51.138;6.008;2023-02-28T01:51:44;0.33;118.99
66312;HTU21D;53114;51.138;6.008;2023-02-28T01:54:18;0.34;118.99
66312;HTU21D;53114;51.138;6.008;2023-02-28T01:56:57;0.35;118.99
66312;HTU21D;53114;51.138;6.008;2023-02-28T02:02:22;0.32;118.99
66312;HTU21D;53114;51.138;6.008;2023-02-28T02:05:17;0.30;118.99
66312;HTU21D;53114;51.138;6.008;2023-02-28T02:07:45;0.30;118.99
66312;HTU21D;53114;51.138;6.008;2023-02-28T02:13:08;0.29;118.99
66312;HTU21D;53114;51.138;6.008;2023-02-28T02:15:40;0.28;118.99
66312;HTU21D;53114;51.138;6.008;2023-02-28T02:18:28;0.24;118.99
66312;HTU21D;53114;51.138;6.008;2023-02-28T02:21:18;0.23;118.99
66312;HTU21D;53114;51.138;6.008;2023-02-28T02:40:23;-0.00;118.99
66312;HTU21D;53114;51.138;6.008;2023-02-28T02:43:01;-0.01;118.99
66312;HTU21D;53114;51.138;6.008;2023-02-28T02:48:12;-0.14;118.99
66312;HTU21D;53114;51.138;6.008;2023-02-28T02:50:51;-0.13;118.99
66312;HTU21D;53114;51.138;6.008;2023-02-28T02:53:25;-0.15;118.99
66312;HTU21D;53114;51.138;6.008;2023-02-28T02:55:55;-0.17;118.99
66312;HTU21D;53114;51.138;6.008;2023-02-28T02:58:35;-0.15;118.99
66312;HTU21D;53114;51.138;6.008;2023-02-28T03:01:15;-0.15;118.99
66312;HTU21D;53114;51.138;6.008;2023-02-28T03:04:10;-0.13;118.99
66312;HTU21D;53114;51.138;6.008;2023-02-28T03:06:37;-0.13;118.99
66312;HTU21D;53114;51.138;6.008;2023-02-28T03:09:03;-0.14;118.99
66312;HTU21D;53114;51.138;6.008;2023-02-28T03:11:31;-0.12;118.99
66312;HTU21D;53114;51.138;6.008;2023-02-28T03:31:00;-0.16;118.99
66312;HTU21D;53114;51.138;6.008;2023-02-28T03:33:30;-0.17;118.99
66312;HTU21D;53114;51.138;6.008;2023-02-28T03:36:48;-0.19;118.99
66312;HTU21D;53114;51.138;6.008;2023-02-28T03:39:08;-0.20;118.99
66312;HTU21D;53114;51.138;6.008;2023-02-28T03:41:45;-0.23;118.99
66312;HTU21D;53114;51.138;6.008;2023-02-28T03:44:25;-0.23;118.99
66312;HTU21D;53114;51.138;6.008;2023-02-28T03:47:02;-0.23;118.99
66312;HTU21D;53114;51.138;6.008;2023-02-28T03:49:42;-0.24;118.99
66312;HTU21D;53114;51.138;6.008;2023-02-28T03:52:11;-0.24;118.99
66312;HTU21D;53114;51.138;6.008;2023-02-28T03:54:45;-0.24;118.99
66312;HTU21D;53114;51.138;6.008;2023-02-28T04:00:10;-0.28;118.99
66312;HTU21D;53114;51.138;6.008;2023-02-28T04:02:41;-0.32;118.99
66312;HTU21D;53114;51.138;6.008;2023-02-28T04:05:07;-0.32;118.99
66312;HTU21D;53114;51.138;6.008;2023-02-28T04:07:33;-0.36;118.99
66312;HTU21D;53114;51.138;6.008;2023-02-28T04:09:59;-0.38;118.99
66312;HTU21D;53114;51.138;6.008;2023-02-28T04:12:26;-0.38;118.99
66312;HTU21D;53114;51.138;6.008;2023-02-28T04:14:51;-0.39;118.99
66312;HTU21D;53114;51.138;6.008;2023-02-28T04:17:18;-0.38;118.99
66312;HTU21D;53114;51.138;6.008;2023-02-28T04:19:44;-0.40;118.99
66312;HTU21D;53114;51.138;6.008;2023-02-28T04:22:10;-0.42;118.99
66312;HTU21D;53114;51.138;6.008;2023-02-28T04:24:36;-0.43;118.99
66312;HTU21D;53114;51.138;6.008;2023-02-28T04:27:02;-0.43;118.99
66312;HTU21D;53114;51.138;6.008;2023-02-28T04:29:30;-0.44;118.99
66312;HTU21D;53114;51.138;6.008;2023-02-28T04:31:59;-0.44;118.99
66312;HTU21D;53114;51.138;6.008;2023-02-28T04:34:27;-0.45;118.99
66312;HTU21D;53114;51.138;6.008;2023-02-28T04:36:53;-0.44;118.99
66312;HTU21D;53114;51.138;6.008;2023-02-28T04:39:21;-0.43;118.99
66312;HTU21D;53114;51.138;6.008;2023-02-28T04:41:47;-0.43;118.99
66312;HTU21D;53114;51.138;6.008;2023-02-28T04:44:14;-0.41;118.99
66312;HTU21D;53114;51.138;6.008;2023-02-28T04:46:40;-0.42;118.99
66312;HTU21D;53114;51.138;6.008;2023-02-28T04:49:07;-0.44;118.99
66312;HTU21D;53114;51.138;6.008;2023-02-28T04:51:33;-0.46;118.99
66312;HTU21D;53114;51.138;6.008;2023-02-28T04:53:59;-0.50;118.99
66312;HTU21D;53114;51.138;6.008;2023-02-28T04:56:25;-0.56;118.99
66312;HTU21D;53114;51.138;6.008;2023-02-28T04:58:51;-0.61;118.99
66312;HTU21D;53114;51.138;6.008;2023-02-28T05:03:47;-0.59;118.99
66312;HTU21D;53114;51.138;6.008;2023-02-28T05:06:14;-0.58;118.99
66312;HTU21D;53114;51.138;6.008;2023-02-28T05:08:40;-0.60;118.99
66312;HTU21D;53114;51.138;6.008;2023-02-28T05:11:14;-0.60;118.99
66312;HTU21D;53114;51.138;6.008;2023-02-28T05:13:40;-0.60;118.99
66312;HTU21D;53114;51.138;6.008;2023-02-28T05:16:06;-0.59;118.99
66312;HTU21D;53114;51.138;6.008;2023-02-28T05:18:32;-0.59;118.99
66312;HTU21D;53114;51.138;6.008;2023-02-28T05:20:59;-0.59;118.99
66312;HTU21D;53114;51.138;6.008;2023-02-28T05:23:28;-0.58;118.99
66312;HTU21D;53114;51.138;6.008;2023-02-28T05:25:54;-0.59;118.99
66312;HTU21D;53114;51.138;6.008;2023-02-28T05:28:20;-0.59;118.99
66312;HTU21D;53114;51.138;6.008;2023-02-28T05:30:47;-0.61;118.99
66312;HTU21D;53114;51.138;6.008;2023-02-28T05:33:13;-0.60;118.99
66312;HTU21D;53114;51.138;6.008;2023-02-28T05:35:39;-0.62;118.99
66312;HTU21D;53114;51.138;6.008;2023-02-28T05:38:06;-0.64;118.99
66312;HTU21D;53114;51.138;6.008;2023-02-28T05:40:32;-0.64;118.99
66312;HTU21D;53114;51.138;6.008;2023-02-28T05:42:58;-0.61;118.99
66312;HTU21D;53114;51.138;6.008;2023-02-28T05:45:24;-0.60;118.99
66312;HTU21D;53114;51.138;6.008;2023-02-28T05:47:53;-0.61;118.99
66312;HTU21D;53114;51.138;6.008;2023-02-28T05:50:20;-0.60;118.99
66312;HTU21D;53114;51.138;6.008;2023-02-28T05:52:52;-0.60;118.99
66312;HTU21D;53114;51.138;6.008;2023-02-28T05:55:18;-0.60;118.99
66312;HTU21D;53114;51.138;6.008;2023-02-28T05:57:44;-0.60;118.99
66312;HTU21D;53114;51.138;6.008;2023-02-28T06:00:10;-0.60;118.99
66312;HTU21D;53114;51.138;6.008;2023-02-28T06:02:40;-0.59;118.99
66312;HTU21D;53114;51.138;6.008;2023-02-28T06:05:17;-0.60;118.99
66312;HTU21D;53114;51.138;6.008;2023-02-28T06:07:43;-0.60;118.99
66312;HTU21D;53114;51.138;6.008;2023-02-28T06:10:11;-0.61;118.99
66312;HTU21D;53114;51.138;6.008;2023-02-28T06:12:37;-0.61;118.99
66312;HTU21D;53114;51.138;6.008;2023-02-28T06:15:04;-0.62;118.99
66312;HTU21D;53114;51.138;6.008;2023-02-28T06:17:30;-0.61;118.99
66312;HTU21D;53114;51.138;6.008;2023-02-28T06:19:56;-0.64;118.99
66312;HTU21D;53114;51.138;6.008;2023-02-28T06:22:23;-0.66;118.99
66312;HTU21D;53114;51.138;6.008;2023-02-28T06:24:49;-0.62;118.99
66312;HTU21D;53114;51.138;6.008;2023-02-28T06:27:15;-0.61;118.99
66312;HTU21D;53114;51.138;6.008;2023-02-28T06:29:41;-0.60;118.99
66312;HTU21D;53114;51.138;6.008;2023-02-28T06:32:07;-0.59;118.99
66312;HTU21D;53114;51.138;6.008;2023-02-28T06:34:32;-0.55;118.99
66312;HTU21D;53114;51.138;6.008;2023-02-28T06:37:00;-0.51;118.99
66312;HTU21D;53114;51.138;6.008;2023-02-28T06:39:31;-0.50;118.99
66312;HTU21D;53114;51.138;6.008;2023-02-28T06:41:57;-0.46;118.99
66312;HTU21D;53114;51.138;6.008;2023-02-28T06:44:24;-0.44;118.99
66312;HTU21D;53114;51.138;6.008;2023-02-28T06:46:50;-0.41;118.99
66312;HTU21D;53114;51.138;6.008;2023-02-28T06:49:17;-0.37;118.99
66312;HTU21D;53114;51.138;6.008;2023-02-28T06:51:44;-0.34;118.99
66312;HTU21D;53114;51.138;6.008;2023-02-28T06:54:13;-0.30;118.99
66312;HTU21D;53114;51.138;6.008;2023-02-28T06:56:39;-0.28;118.99
66312;HTU21D;53114;51.138;6.008;2023-02-28T06:59:05;-0.27;118.99
66312;HTU21D;53114;51.138;6.008;2023-02-28T07:01:34;-0.24;118.99
66312;HTU21D;53114;51.138;6.008;2023-02-28T07:04:01;-0.24;118.99
66312;HTU21D;53114;51.138;6.008;2023-02-28T07:06:31;-0.21;118.99
66312;HTU21D;53114;51.138;6.008;2023-02-28T07:08:57;-0.16;118.99
66312;HTU21D;53114;51.138;6.008;2023-02-28T07:11:26;-0.13;118.99
66312;HTU21D;53114;51.138;6.008;2023-02-28T07:13:54;-0.09;118.99
66312;HTU21D;53114;51.138;6.008;2023-02-28T07:16:23;0.07;118.99
66312;HTU21D;53114;51.138;6.008;2023-02-28T07:18:49;0.30;118.99
66312;HTU21D;53114;51.138;6.008;2023-02-28T07:21:15;0.37;118.99
66312;HTU21D;53114;51.138;6.008;2023-02-28T07:23:41;0.39;118.99
66312;HTU21D;53114;51.138;6.008;2023-02-28T07:26:13;0.40;118.99
66312;HTU21D;53114;51.138;6.008;2023-02-28T07:28:47;0.48;118.99
66312;HTU21D;53114;51.138;6.008;2023-02-28T07:31:14;0.66;118.99
66312;HTU21D;53114;51.138;6.008;2023-02-28T07:33:41;1.10;118.99
66312;HTU21D;53114;51.138;6.008;2023-02-28T07:36:09;1.32;116.21
66312;HTU21D;53114;51.138;6.008;2023-02-28T07:38:42;1.36;114.82
66312;HTU21D;53114;51.138;6.008;2023-02-28T07:41:09;1.31;113.58
66312;HTU21D;53114;51.138;6.008;2023-02-28T07:43:35;1.24;114.14
66312;HTU21D;53114;51.138;6.008;2023-02-28T07:46:07;1.12;114.45
66312;HTU21D;53114;51.138;6.008;2023-02-28T07:48:33;1.05;115.45
66312;HTU21D;53114;51.138;6.008;2023-02-28T07:50:59;1.04;116.09
66312;HTU21D;53114;51.138;6.008;2023-02-28T07:53:27;1.21;116.85
66312;HTU21D;53114;51.138;6.008;2023-02-28T07:55:58;1.62;115.14
66312;HTU21D;53114;51.138;6.008;2023-02-28T07:58:25;1.86;112.01
66312;HTU21D;53114;51.138;6.008;2023-02-28T08:00:52;2.16;110.12
66312;HTU21D;53114;51.138;6.008;2023-02-28T08:03:20;2.45;105.40
66312;HTU21D;53114;51.138;6.008;2023-02-28T08:05:49;2.88;105.81
66312;HTU21D;53114;51.138;6.008;2023-02-28T08:08:16;3.20;98.51
66312;HTU21D;53114;51.138;6.008;2023-02-28T08:10:43;3.18;95.86
66312;HTU21D;53114;51.138;6.008;2023-02-28T08:13:09;3.14;95.81
66312;HTU21D;53114;51.138;6.008;2023-02-28T08:15:35;3.18;95.29
66312;HTU21D;53114;51.138;6.008;2023-02-28T08:18:02;3.40;94.91
66312;HTU21D;53114;51.138;6.008;2023-02-28T08:20:28;3.69;88.54
66312;HTU21D;53114;51.138;6.008;2023-02-28T08:22:54;3.64;85.89
66312;HTU21D;53114;51.138;6.008;2023-02-28T08:25:20;3.76;85.76
66312;HTU21D;53114;51.138;6.008;2023-02-28T08:27:51;3.79;84.52
66312;HTU21D;53114;51.138;6.008;2023-02-28T08:30:17;3.80;81.83
66312;HTU21D;53114;51.138;6.008;2023-02-28T08:32:43;3.86;86.50
66312;HTU21D;53114;51.138;6.008;2023-02-28T08:35:10;4.58;85.43
66312;HTU21D;53114;51.138;6.008;2023-02-28T08:37:36;5.67;82.81
66312;HTU21D;53114;51.138;6.008;2023-02-28T08:40:02;7.25;72.56
66312;HTU21D;53114;51.138;6.008;2023-02-28T08:42:30;9.26;60.00
66312;HTU21D;53114;51.138;6.008;2023-02-28T08:44:57;11.16;49.51
66312;HTU21D;53114;51.138;6.008;2023-02-28T08:47:23;13.00;42.74
66312;HTU21D;53114;51.138;6.008;2023-02-28T08:49:49;14.24;39.02
66312;HTU21D;53114;51.138;6.008;2023-02-28T08:52:15;15.59;34.95
66312;HTU21D;53114;51.138;6.008;2023-02-28T08:54:41;16.63;31.80
66312;HTU21D;53114;51.138;6.008;2023-02-28T08:57:07;17.38;30.04
66312;HTU21D;53114;51.138;6.008;2023-02-28T08:59:33;17.78;28.90
66312;HTU21D;53114;51.138;6.008;2023-02-28T09:01:59;18.03;27.71
66312;HTU21D;53114;51.138;6.008;2023-02-28T09:04:25;18.22;27.49
66312;HTU21D;53114;51.138;6.008;2023-02-28T09:06:51;18.48;26.31
66312;HTU21D;53114;51.138;6.008;2023-02-28T09:09:17;18.76;25.69
66312;HTU21D;53114;51.138;6.008;2023-02-28T09:11:42;19.10;23.54
66312;HTU21D;53114;51.138;6.008;2023-02-28T09:14:08;18.68;24.24
66312;HTU21D;53114;51.138;6.008;2023-02-28T09:16:34;18.34;23.29
66312;HTU21D;53114;51.138;6.008;2023-02-28T09:19:01;17.78;25.23
66312;HTU21D;53114;51.138;6.008;2023-02-28T09:21:27;17.81;24.99
66312;HTU21D;53114;51.138;6.008;2023-02-28T09:23:53;18.12;25.48
66312;HTU21D;53114;51.138;6.008;2023-02-28T09:26:25;18.71;24.47
66312;HTU21D;53114;51.138;6.008;2023-02-28T09:28:53;19.25;23.41
66312;HTU21D;53114;51.138;6.008;2023-02-28T09:31:25;19.37;22.35
66312;HTU21D;53114;51.138;6.008;2023-02-28T09:33:54;19.09;21.85
66312;HTU21D;53114;51.138;6.008;2023-02-28T09:36:22;19.01;22.66
66312;HTU21D;53114;51.138;6.008;2023-02-28T09:38:49;19.02;22.50
66312;HTU21D;53114;51.138;6.008;2023-02-28T09:41:25;18.82;22.24
66312;HTU21D;53114;51.138;6.008;2023-02-28T09:44:00;18.68;22.40
66312;HTU21D;53114;51.138;6.008;2023-02-28T09:46:32;18.33;22.16
66312;HTU21D;53114;51.138;6.008;2023-02-28T09:49:03;18.04;22.52
66312;HTU21D;53114;51.138;6.008;2023-02-28T09:54:20;17.93;23.09
66312;HTU21D;53114;51.138;6.008;2023-02-28T09:57:02;18.11;21.15
66312;HTU21D;53114;51.138;6.008;2023-02-28T09:59:51;18.04;22.05
66312;HTU21D;53114;51.138;6.008;2023-02-28T10:04:50;18.41;22.48
66312;HTU21D;53114;51.138;6.008;2023-02-28T10:08:10;18.65;22.10
66312;HTU21D;53114;51.138;6.008;2023-02-28T10:15:41;18.19;20.00
66312;HTU21D;53114;51.138;6.008;2023-02-28T10:18:16;18.05;22.72
66312;HTU21D;53114;51.138;6.008;2023-02-28T10:20:45;18.29;21.47
66312;HTU21D;53114;51.138;6.008;2023-02-28T10:23:23;18.35;21.05
66312;HTU21D;53114;51.138;6.008;2023-02-28T10:26:08;18.77;20.91
66312;HTU21D;53114;51.138;6.008;2023-02-28T10:28:36;18.91;20.85
66312;HTU21D;53114;51.138;6.008;2023-02-28T10:31:02;18.70;18.96
66312;HTU21D;53114;51.138;6.008;2023-02-28T10:33:34;18.61;21.08
66312;HTU21D;53114;51.138;6.008;2023-02-28T10:36:03;18.52;20.82
66312;HTU21D;53114;51.138;6.008;2023-02-28T10:38:35;18.25;21.34
66312;HTU21D;53114;51.138;6.008;2023-02-28T10:41:30;18.25;20.46
66312;HTU21D;53114;51.138;6.008;2023-02-28T10:44:14;18.28;21.09
66312;HTU21D;53114;51.138;6.008;2023-02-28T10:46:42;18.11;21.35
66312;HTU21D;53114;51.138;6.008;2023-02-28T10:49:24;18.39;22.34
66312;HTU21D;53114;51.138;6.008;2023-02-28T10:51:56;18.88;21.02
66312;HTU21D;53114;51.138;6.008;2023-02-28T10:54:34;18.92;21.08
66312;HTU21D;53114;51.138;6.008;2023-02-28T10:57:23;18.44;19.73
66312;HTU21D;53114;51.138;6.008;2023-02-28T11:02:40;17.79;23.39
66312;HTU21D;53114;51.138;6.008;2023-02-28T11:05:30;18.24;21.94
66312;HTU21D;53114;51.138;6.008;2023-02-28T11:08:15;18.09;20.98
66312;HTU21D;53114;51.138;6.008;2023-02-28T11:10:48;18.39;22.40
66312;HTU21D;53114;51.138;6.008;2023-02-28T11:13:21;18.50;21.15
66312;HTU21D;53114;51.138;6.008;2023-02-28T11:15:54;18.58;20.82
66312;HTU21D;53114;51.138;6.008;2023-02-28T11:21:15;19.07;19.36
66312;HTU21D;53114;51.138;6.008;2023-02-28T11:23:43;18.57;18.72
66312;HTU21D;53114;51.138;6.008;2023-02-28T11:26:09;18.25;20.24
66312;HTU21D;53114;51.138;6.008;2023-02-28T11:28:42;18.69;20.06
66312;HTU21D;53114;51.138;6.008;2023-02-28T11:36:18;19.29;19.83
66312;HTU21D;53114;51.138;6.008;2023-02-28T11:38:45;19.13;19.63
66312;HTU21D;53114;51.138;6.008;2023-02-28T11:41:30;19.03;19.19
66312;HTU21D;53114;51.138;6.008;2023-02-28T11:44:19;18.77;18.98
66312;HTU21D;53114;51.138;6.008;2023-02-28T11:46:52;18.21;18.99
66312;HTU21D;53114;51.138;6.008;2023-02-28T11:49:40;17.76;20.38
66312;HTU21D;53114;51.138;6.008;2023-02-28T11:55:01;17.44;20.18
66312;HTU21D;53114;51.138;6.008;2023-02-28T11:58:07;17.41;21.41
66312;HTU21D;53114;51.138;6.008;2023-02-28T12:00:52;17.33;20.70
66312;HTU21D;53114;51.138;6.008;2023-02-28T12:12:15;12.66;24.65
66312;HTU21D;53114;51.138;6.008;2023-02-28T12:17:43;10.68;27.74
66312;HTU21D;53114;51.138;6.008;2023-02-28T12:28:17;8.53;32.67
66312;HTU21D;53114;51.138;6.008;2023-02-28T12:31:08;8.05;34.24
66312;HTU21D;53114;51.138;6.008;2023-02-28T12:33:42;7.76;35.46
66312;HTU21D;53114;51.138;6.008;2023-02-28T12:36:13;7.85;35.82
66312;HTU21D;53114;51.138;6.008;2023-02-28T12:38:55;7.94;36.11
66312;HTU21D;53114;51.138;6.008;2023-02-28T12:41:41;7.97;36.05
66312;HTU21D;53114;51.138;6.008;2023-02-28T12:46:50;7.71;36.58
66312;HTU21D;53114;51.138;6.008;2023-02-28T12:49:33;7.74;37.40
66312;HTU21D;53114;51.138;6.008;2023-02-28T12:52:04;7.72;37.42
66312;HTU21D;53114;51.138;6.008;2023-02-28T12:54:53;7.83;37.66
66312;HTU21D;53114;51.138;6.008;2023-02-28T12:57:43;7.94;36.88
66312;HTU21D;53114;51.138;6.008;2023-02-28T13:00:16;7.92;37.18
66312;HTU21D;53114;51.138;6.008;2023-02-28T13:03:21;7.98;37.54
66312;HTU21D;53114;51.138;6.008;2023-02-28T13:14:06;7.69;38.82
66312;HTU21D;53114;51.138;6.008;2023-02-28T13:16:58;7.70;40.06
66312;HTU21D;53114;51.138;6.008;2023-02-28T13:19:31;7.73;39.95
66312;HTU21D;53114;51.138;6.008;2023-02-28T13:21:58;7.64;39.46
66312;HTU21D;53114;51.138;6.008;2023-02-28T13:29:41;7.44;37.82
66312;HTU21D;53114;51.138;6.008;2023-02-28T13:39:49;7.48;39.38
66312;HTU21D;53114;51.138;6.008;2023-02-28T13:47:45;7.65;40.55
66312;HTU21D;53114;51.138;6.008;2023-02-28T13:55:56;7.74;39.27
66312;HTU21D;53114;51.138;6.008;2023-02-28T14:01:59;7.59;38.27
66312;HTU21D;53114;51.138;6.008;2023-02-28T14:07:04;7.55;38.48
66312;HTU21D;53114;51.138;6.008;2023-02-28T14:09:35;7.50;39.46
66312;HTU21D;53114;51.138;6.008;2023-02-28T14:13:04;7.70;39.66
66312;HTU21D;53114;51.138;6.008;2023-02-28T14:15:39;7.78;38.80
66312;HTU21D;53114;51.138;6.008;2023-02-28T14:18:48;7.87;39.39
66312;HTU21D;53114;51.138;6.008;2023-02-28T14:37:15;7.79;39.41
66312;HTU21D;53114;51.138;6.008;2023-02-28T14:39:47;7.78;40.18
66312;HTU21D;53114;51.138;6.008;2023-02-28T14:42:36;7.86;41.01
66312;HTU21D;53114;51.138;6.008;2023-02-28T14:45:39;7.83;40.42
66312;HTU21D;53114;51.138;6.008;2023-02-28T14:48:09;7.87;39.59
66312;HTU21D;53114;51.138;6.008;2023-02-28T14:50:37;7.88;39.18
66312;HTU21D;53114;51.138;6.008;2023-02-28T14:53:20;7.93;39.20
66312;HTU21D;53114;51.138;6.008;2023-02-28T14:55:48;8.01;39.75
66312;HTU21D;53114;51.138;6.008;2023-02-28T15:00:54;8.04;40.78
66312;HTU21D;53114;51.138;6.008;2023-02-28T15:05:55;8.26;40.13
66312;HTU21D;53114;51.138;6.008;2023-02-28T15:08:22;8.31;40.23
66312;HTU21D;53114;51.138;6.008;2023-02-28T15:10:57;8.34;40.25
66312;HTU21D;53114;51.138;6.008;2023-02-28T15:13:39;8.35;39.75
66312;HTU21D;53114;51.138;6.008;2023-02-28T15:16:12;8.26;39.51
66312;HTU21D;53114;51.138;6.008;2023-02-28T15:18:55;8.20;39.52
66312;HTU21D;53114;51.138;6.008;2023-02-28T15:21:37;8.13;39.78
66312;HTU21D;53114;51.138;6.008;2023-02-28T15:26:43;7.97;39.82
66312;HTU21D;53114;51.138;6.008;2023-02-28T15:29:16;8.03;39.94
66312;HTU21D;53114;51.138;6.008;2023-02-28T15:31:45;8.08;39.27
66312;HTU21D;53114;51.138;6.008;2023-02-28T15:34:24;8.05;39.47
66312;HTU21D;53114;51.138;6.008;2023-02-28T15:36:52;8.03;39.06
66312;HTU21D;53114;51.138;6.008;2023-02-28T15:39:24;8.01;39.10
66312;HTU21D;53114;51.138;6.008;2023-02-28T15:41:50;8.03;39.20
66312;HTU21D;53114;51.138;6.008;2023-02-28T15:44:27;8.00;39.08
66312;HTU21D;53114;51.138;6.008;2023-02-28T15:47:06;7.97;39.20
66312;HTU21D;53114;51.138;6.008;2023-02-28T15:49:46;7.86;39.86
66312;HTU21D;53114;51.138;6.008;2023-02-28T15:52:46;7.86;39.75
66312;HTU21D;53114;51.138;6.008;2023-02-28T15:55:19;7.88;39.76
66312;HTU21D;53114;51.138;6.008;2023-02-28T15:57:51;7.89;39.89
66312;HTU21D;53114;51.138;6.008;2023-02-28T16:00:21;7.84;40.20
66312;HTU21D;53114;51.138;6.008;2023-02-28T16:02:47;7.77;39.77
66312;HTU21D;53114;51.138;6.008;2023-02-28T16:05:28;7.60;40.18
66312;HTU21D;53114;51.138;6.008;2023-02-28T16:08:15;7.50;40.30
66312;HTU21D;53114;51.138;6.008;2023-02-28T16:10:41;7.40;40.75
66312;HTU21D;53114;51.138;6.008;2023-02-28T16:13:11;7.39;40.77
66312;HTU21D;53114;51.138;6.008;2023-02-28T16:15:42;7.37;41.27
66312;HTU21D;53114;51.138;6.008;2023-02-28T16:18:12;7.39;41.53
66312;HTU21D;53114;51.138;6.008;2023-02-28T16:20:39;7.37;41.36
66312;HTU21D;53114;51.138;6.008;2023-02-28T16:23:05;7.32;41.20
66312;HTU21D;53114;51.138;6.008;2023-02-28T16:25:37;7.27;41.50
66312;HTU21D;53114;51.138;6.008;2023-02-28T16:28:19;7.22;41.84
66312;HTU21D;53114;51.138;6.008;2023-02-28T16:30:46;7.11;42.05
66312;HTU21D;53114;51.138;6.008;2023-02-28T16:33:12;7.07;42.35
66312;HTU21D;53114;51.138;6.008;2023-02-28T16:35:38;7.02;42.40
66312;HTU21D;53114;51.138;6.008;2023-02-28T16:38:04;6.95;42.58
66312;HTU21D;53114;51.138;6.008;2023-02-28T16:40:35;6.86;43.00
66312;HTU21D;53114;51.138;6.008;2023-02-28T16:43:05;6.75;43.13
66312;HTU21D;53114;51.138;6.008;2023-02-28T16:45:36;6.63;43.61
66312;HTU21D;53114;51.138;6.008;2023-02-28T16:48:01;6.42;44.54
66312;HTU21D;53114;51.138;6.008;2023-02-28T16:50:30;6.27;44.84
66312;HTU21D;53114;51.138;6.008;2023-02-28T16:52:58;6.19;45.31
66312;HTU21D;53114;51.138;6.008;2023-02-28T16:55:26;6.09;46.12
66312;HTU21D;53114;51.138;6.008;2023-02-28T16:57:55;6.02;45.96
66312;HTU21D;53114;51.138;6.008;2023-02-28T17:00:22;5.96;46.31
66312;HTU21D;53114;51.138;6.008;2023-02-28T17:02:48;5.87;46.70
66312;HTU21D;53114;51.138;6.008;2023-02-28T17:05:15;5.74;47.31
66312;HTU21D;53114;51.138;6.008;2023-02-28T17:07:42;5.64;48.04
66312;HTU21D;53114;51.138;6.008;2023-02-28T17:10:21;5.52;48.69
66312;HTU21D;53114;51.138;6.008;2023-02-28T17:12:47;5.42;49.24
66312;HTU21D;53114;51.138;6.008;2023-02-28T17:15:16;5.35;49.57
66312;HTU21D;53114;51.138;6.008;2023-02-28T17:17:44;5.30;49.79
66312;HTU21D;53114;51.138;6.008;2023-02-28T17:20:20;5.25;50.18
66312;HTU21D;53114;51.138;6.008;2023-02-28T17:22:50;5.20;50.70
66312;HTU21D;53114;51.138;6.008;2023-02-28T17:25:16;5.11;51.22
66312;HTU21D;53114;51.138;6.008;2023-02-28T17:27:42;5.06;51.50
66312;HTU21D;53114;51.138;6.008;2023-02-28T17:32:41;4.92;52.61
66312;HTU21D;53114;51.138;6.008;2023-02-28T17:35:07;4.91;52.92
66312;HTU21D;53114;51.138;6.008;2023-02-28T17:37:33;4.87;53.27
66312;HTU21D;53114;51.138;6.008;2023-02-28T17:40:00;4.83;53.85
66312;HTU21D;53114;51.138;6.008;2023-02-28T17:42:26;4.77;54.27
66312;HTU21D;53114;51.138;6.008;2023-02-28T17:44:51;4.74;54.84
66312;HTU21D;53114;51.138;6.008;2023-02-28T17:47:17;4.72;55.04
66312;HTU21D;53114;51.138;6.008;2023-02-28T17:49:43;4.61;55.27
66312;HTU21D;53114;51.138;6.008;2023-02-28T17:52:09;4.52;56.38
66312;HTU21D;53114;51.138;6.008;2023-02-28T17:54:35;4.48;56.82
66312;HTU21D;53114;51.138;6.008;2023-02-28T17:57:01;4.45;57.32
66312;HTU21D;53114;51.138;6.008;2023-02-28T17:59:27;4.42;58.01
66312;HTU21D;53114;51.138;6.008;2023-02-28T18:02:00;4.37;58.40
66312;HTU21D;53114;51.138;6.008;2023-02-28T18:04:26;4.35;58.75
66312;HTU21D;53114;51.138;6.008;2023-02-28T18:06:53;4.32;59.48
66312;HTU21D;53114;51.138;6.008;2023-02-28T18:09:21;4.31;59.54
66312;HTU21D;53114;51.138;6.008;2023-02-28T18:11:48;4.23;60.41
66312;HTU21D;53114;51.138;6.008;2023-02-28T18:14:19;4.16;61.04
66312;HTU21D;53114;51.138;6.008;2023-02-28T18:16:45;4.06;62.19
66312;HTU21D;53114;51.138;6.008;2023-02-28T18:19:12;4.02;62.91
66312;HTU21D;53114;51.138;6.008;2023-02-28T18:21:44;3.97;63.37